Time;durP1;ratioP1;P1;durP2;ratioP2;P2;SDS_P1;SDS_P2;PMS_P1;PMS_P2;Temp;Humidity;BMP_temperature;BMP_pressure;BME280_temperature;BME280_humidity;BME280_pressure;Samples;Min_cycle;Max_cycle;Signal;HPM_P1;HPM_P2
2022/04/25 00:02:19;;;;;;;10.77;7.53;;;;;;;7.67;nan;100960.56;5053032;28;20025;-52
2022/04/25 00:04:45;;;;;;;15.00;8.95;;;;;;;7.58;nan;100951.13;5053131;28;20036;-52
2022/04/25 00:07:10;;;;;;;12.20;7.97;;;;;;;7.31;nan;100888.75;5053079;28;20048;-50
2022/04/25 00:09:36;;;;;;;10.43;8.00;;;;;;;7.67;nan;100950.94;5052815;28;20055;-51
2022/04/25 00:12:02;;;;;;;10.43;6.93;;;;;;;7.28;nan;100884.44;5052726;28;20033;-49
2022/04/25 00:14:28;;;;;;;9.18;7.60;;;;;;;7.69;nan;100953.53;5052735;28;20117;-48
2022/04/25 00:16:56;;;;;;;10.48;8.07;;;;;;;7.63;nan;100944.03;5052772;28;20053;-48
2022/04/25 00:19:22;;;;;;;11.23;7.47;;;;;;;7.68;nan;100952.66;5052846;28;20044;-53
2022/04/25 00:21:47;;;;;;;10.85;7.45;;;;;;;7.68;nan;100955.28;5051806;28;20040;-56
2022/04/25 00:24:13;;;;;;;11.65;7.63;;;;;;;7.62;nan;100941.41;5052450;28;20053;-52
2022/04/25 00:26:38;;;;;;;7.53;6.75;;;;;;;7.69;nan;100957.00;5052457;28;20037;-51
2022/04/25 00:29:03;;;;;;;13.60;8.05;;;;;;;7.38;nan;100919.19;5051410;28;20438;-53
2022/04/25 00:31:29;;;;;;;8.75;6.53;;;;;;;7.24;nan;100881.88;5051376;28;20040;-49
2022/04/25 00:33:54;;;;;;;9.55;7.63;;;;;;;7.30;nan;100898.34;5051213;28;20048;-53
2022/04/25 00:36:19;;;;;;;12.73;7.72;;;;;;;7.65;nan;100950.09;5052315;28;20467;-48
2022/04/25 00:38:45;;;;;;;55.58;10.15;;;;;;;7.35;nan;100893.06;5050922;28;20029;-53
2022/04/25 00:41:10;;;;;;;12.05;7.60;;;;;;;7.53;nan;100934.59;5052688;28;20031;-50
2022/04/25 00:43:35;;;;;;;10.10;7.90;;;;;;;7.61;nan;100947.56;5052507;28;20036;-48
2022/04/25 00:46:01;;;;;;;13.80;8.02;;;;;;;7.22;nan;100889.78;5052241;28;20036;-51
2022/04/25 00:48:26;;;;;;;13.02;8.65;;;;;;;7.20;nan;100888.09;5052613;28;20029;-51
2022/04/25 00:50:51;;;;;;;12.15;8.02;;;;;;;7.52;nan;100952.97;5052267;28;20032;-51
2022/04/25 00:53:17;;;;;;;12.73;8.32;;;;;;;7.41;nan;100934.84;5052225;28;20507;-53
2022/04/25 00:55:42;;;;;;;10.80;8.45;;;;;;;7.44;nan;100947.88;5051974;28;20040;-53
2022/04/25 00:58:07;;;;;;;15.07;8.35;;;;;;;7.43;nan;100954.00;5052334;28;20040;-50
2022/04/25 01:00:36;;;;;;;11.98;7.80;;;;;;;7.36;nan;100934.91;5051046;28;20032;-51
2022/04/25 01:03:02;;;;;;;12.63;7.57;;;;;;;7.40;nan;100948.81;5051956;28;20480;-54
2022/04/25 01:05:27;;;;;;;11.90;8.57;;;;;;;7.40;nan;100948.81;5052176;28;20069;-50
2022/04/25 01:07:53;;;;;;;13.55;9.25;;;;;;;7.04;nan;100884.88;5050774;28;20480;-47
2022/04/25 01:10:18;;;;;;;14.15;8.20;;;;;;;7.43;nan;100947.91;5052126;28;20036;-52
2022/04/25 01:12:43;;;;;;;13.65;9.38;;;;;;;7.11;nan;100893.47;5052194;28;20111;-48
2022/04/25 01:15:10;;;;;;;12.45;8.13;;;;;;;7.41;nan;100947.06;5050843;28;20075;-48
2022/04/25 01:17:36;;;;;;;13.32;8.50;;;;;;;7.23;nan;100922.94;5051919;28;20372;-47
2022/04/25 01:20:03;;;;;;;12.23;8.57;;;;;;;7.35;nan;100948.88;5050664;28;20037;-53
2022/04/25 01:22:35;;;;;;;14.77;8.90;;;;;;;7.33;nan;100941.94;5051826;28;20044;-53
2022/04/25 01:27:45;;;;;;;14.02;8.13;;;;;;;6.89;nan;100868.59;5051814;28;20557;-46
2022/04/25 01:30:11;;;;;;;11.82;9.13;;;;;;;6.98;nan;100884.09;5052009;28;20068;-47
2022/04/25 01:32:37;;;;;;;11.32;7.90;;;;;;;7.26;nan;100938.59;5051830;28;20395;-48
2022/04/25 01:35:04;;;;;;;14.07;8.38;;;;;;;7.28;nan;100939.44;5033961;28;20065;-47
2022/04/25 01:37:30;;;;;;;10.70;8.02;;;;;;;7.27;nan;100935.06;5051862;28;20033;-50
2022/04/25 01:39:55;;;;;;;12.25;8.45;;;;;;;7.27;nan;100931.56;5054744;28;20117;-50
2022/04/25 01:42:22;;;;;;;12.48;8.40;;;;;;;6.82;nan;100854.72;5055501;28;20132;-53
2022/04/25 01:44:48;;;;;;;11.32;7.78;;;;;;;7.11;nan;100914.41;5054502;28;20033;-48
2022/04/25 01:47:13;;;;;;;12.15;8.50;;;;;;;7.14;nan;100935.31;5055570;28;20462;-52
2022/04/25 01:49:38;;;;;;;12.60;8.52;;;;;;;7.15;nan;100930.03;5055370;28;20067;-53
2022/04/25 01:52:10;;;;;;;13.00;8.18;;;;;;;6.76;nan;100858.31;5055072;28;20412;-51
2022/04/25 01:54:35;;;;;;;16.23;8.63;;;;;;;6.75;nan;100863.56;5055056;28;20407;-50
2022/04/25 01:57:03;;;;;;;12.93;8.30;;;;;;;7.13;nan;100923.97;5055494;28;20043;-53
2022/04/25 01:59:30;;;;;;;12.45;8.40;;;;;;;7.17;nan;100936.13;5055396;28;20040;-48
2022/04/25 02:01:56;;;;;;;12.98;7.93;;;;;;;7.23;nan;100922.94;5053736;28;20480;-52
2022/04/25 02:04:22;;;;;;;13.18;7.57;;;;;;;6.96;nan;100865.81;5053449;28;20064;-53
2022/04/25 02:06:48;;;;;;;12.73;8.52;;;;;;;7.27;nan;100905.41;5054891;28;20033;-52
2022/04/25 02:09:13;;;;;;;10.57;7.65;;;;;;;7.11;nan;100872.53;5053486;28;20025;-54
2022/04/25 02:11:38;;;;;;;10.25;7.13;;;;;;;7.39;nan;100907.78;5053250;28;20079;-51
2022/04/25 02:14:04;;;;;;;11.80;7.80;;;;;;;7.60;nan;100937.97;5054652;28;20036;-50
2022/04/25 02:16:29;;;;;;;10.15;7.45;;;;;;;7.70;nan;100935.16;5053188;28;20421;-48
2022/04/25 02:18:55;;;;;;;10.80;7.75;;;;;;;7.79;nan;100945.44;5054737;28;20045;-48
2022/04/25 02:21:20;;;;;;;9.52;6.82;;;;;;;7.73;nan;100918.53;5052903;28;20174;-51
2022/04/25 02:23:46;;;;;;;10.98;7.05;;;;;;;7.75;nan;100914.97;5054255;28;20049;-54
2022/04/25 02:26:12;;;;;;;9.10;7.10;;;;;;;7.95;nan;100943.41;5054306;28;20033;-52
2022/04/25 02:28:38;;;;;;;12.63;7.70;;;;;;;7.66;nan;100877.59;5054311;28;20039;-52
2022/04/25 02:31:05;;;;;;;17.42;7.93;;;;;;;7.62;nan;100876.78;5054151;28;20495;-55
2022/04/25 02:33:35;;;;;;;13.32;7.95;;;;;;;7.88;nan;100920.84;5054173;28;20472;-53
2022/04/25 02:36:04;;;;;;;17.48;7.68;;;;;;;7.97;nan;100943.38;5053280;28;20483;-51
2022/04/25 02:38:30;;;;;;;11.35;7.90;;;;;;;7.94;nan;100939.03;5054189;28;20025;-49
2022/04/25 02:41:05;;;;;;;11.75;7.45;;;;;;;7.94;nan;100937.28;5054207;28;20040;-53
2022/04/25 02:43:48;;;;;;;11.52;8.00;;;;;;;7.92;nan;100931.22;5053951;28;20086;-55
2022/04/25 02:46:15;;;;;;;10.40;7.55;;;;;;;7.83;nan;100920.91;5053018;28;20029;-53
2022/04/25 02:48:42;;;;;;;15.90;8.15;;;;;;;7.83;nan;100925.28;5052538;28;20033;-52
2022/04/25 02:51:09;;;;;;;11.82;7.22;;;;;;;7.76;nan;100936.81;5053884;28;20033;-48
2022/04/25 02:53:34;;;;;;;11.70;8.20;;;;;;;7.45;nan;100881.50;5052734;28;20032;-57
2022/04/25 02:56:02;;;;;;;15.88;7.07;;;;;;;7.64;nan;100923.94;5053786;28;20025;-49
2022/04/25 02:58:29;;;;;;;12.63;8.40;;;;;;;7.27;nan;100866.13;5053918;28;20483;-55
2022/04/25 03:00:55;;;;;;;18.67;8.32;;;;;;;7.53;nan;100929.34;5052850;28;20045;-53
2022/04/25 03:03:21;;;;;;;13.80;7.97;;;;;;;7.21;nan;100861.88;5053802;28;20037;-50
2022/04/25 03:05:48;;;;;;;14.27;8.13;;;;;;;7.50;nan;100907.63;5053952;28;20536;-54
2022/04/25 03:08:16;;;;;;;14.90;8.60;;;;;;;7.57;nan;100932.78;5053471;28;20040;-50
2022/04/25 03:10:45;;;;;;;13.25;7.88;;;;;;;7.52;nan;100908.44;5052233;28;20365;-48
2022/04/25 03:13:11;;;;;;;16.10;7.80;;;;;;;7.62;nan;100923.94;5053539;28;20040;-50
2022/04/25 03:15:40;;;;;;;12.77;7.30;;;;;;;7.65;nan;100938.75;5053456;28;20025;-50
2022/04/25 03:18:07;;;;;;;12.27;8.18;;;;;;;7.75;nan;100919.34;5052112;28;20175;-52
2022/04/25 03:20:33;;;;;;;15.90;8.35;;;;;;;7.78;nan;100925.41;5052110;28;20395;-51
2022/04/25 03:22:58;;;;;;;15.35;7.88;;;;;;;7.82;nan;100913.94;5053186;28;20128;-52
2022/04/25 03:25:24;;;;;;;15.48;8.40;;;;;;;7.76;nan;100900.13;5051821;28;20163;-51
2022/04/25 03:27:50;;;;;;;13.00;7.97;;;;;;;7.87;nan;100927.84;5052018;28;20065;-47
2022/04/25 03:30:16;;;;;;;13.68;8.73;;;;;;;7.80;nan;100912.25;5035496;28;20036;-47
2022/04/25 03:32:45;;;;;;;15.13;8.07;;;;;;;7.45;nan;100852.69;5051979;28;20044;-48
2022/04/25 03:35:14;;;;;;;12.43;8.30;;;;;;;7.77;nan;100905.31;5053009;28;20025;-53
2022/04/25 03:37:41;;;;;;;17.27;9.57;;;;;;;7.85;nan;100929.59;5053025;28;20025;-52
2022/04/25 03:40:08;;;;;;;13.55;8.77;;;;;;;7.81;nan;100927.97;5052840;28;20033;-50
2022/04/25 03:42:34;;;;;;;13.05;7.90;;;;;;;7.76;nan;100923.72;5053005;28;20128;-51
2022/04/25 03:45:00;;;;;;;13.30;8.40;;;;;;;7.45;nan;100878.00;5052981;28;20120;-49
2022/04/25 03:47:26;;;;;;;17.55;8.75;;;;;;;7.75;nan;100927.22;5052730;28;20040;-50
2022/04/25 03:49:52;;;;;;;15.88;9.30;;;;;;;7.73;nan;100922.00;5051495;28;20490;-53
2022/04/25 03:52:17;;;;;;;16.00;8.60;;;;;;;7.71;nan;100915.03;5052637;28;20041;-51
2022/04/25 03:57:26;;;;;;;23.38;9.02;;;;;;;7.68;nan;100925.59;5052853;28;20102;-54
2022/04/25 03:59:52;;;;;;;16.98;9.48;;;;;;;7.61;nan;100909.16;5051281;28;20225;-48
2022/04/25 04:02:17;;;;;;;16.08;9.05;;;;;;;6.97;nan;100807.38;5051816;28;20068;-54
2022/04/25 04:04:42;;;;;;;13.80;9.43;;;;;;;7.55;nan;100918.88;5052503;28;20060;-51
2022/04/25 04:07:08;;;;;;;16.10;8.90;;;;;;;7.52;nan;100929.41;5052265;28;20523;-49
2022/04/25 04:09:46;;;;;;;14.93;9.38;;;;;;;7.12;nan;100851.56;5051338;28;20039;-48
2022/04/25 04:12:12;;;;;;;20.95;9.80;;;;;;;7.19;nan;100858.41;5052518;28;20032;-56
2022/04/25 04:14:39;;;;;;;17.73;9.73;;;;;;;7.36;nan;100879.03;5052158;28;20133;-50
2022/04/25 04:17:07;;;;;;;18.63;10.23;;;;;;;7.65;nan;100923.03;5052263;28;20050;-54
2022/04/25 04:19:33;;;;;;;15.52;10.95;;;;;;;7.73;nan;100926.38;5052070;28;20037;-47
2022/04/25 04:22:01;;;;;;;16.73;9.82;;;;;;;7.82;nan;100926.22;5052139;28;20037;-49
2022/04/25 04:24:27;;;;;;;16.48;9.75;;;;;;;7.88;nan;100926.09;5052384;28;20404;-49
2022/04/25 04:26:52;;;;;;;16.98;9.93;;;;;;;7.89;nan;100931.28;5052448;28;20047;-50
2022/04/25 04:29:17;;;;;;;16.02;9.48;;;;;;;7.90;nan;100934.78;5050801;28;20486;-53
2022/04/25 04:31:46;;;;;;;14.88;9.82;;;;;;;7.59;nan;100879.47;5052144;28;20033;-50
2022/04/25 04:34:11;;;;;;;14.43;8.93;;;;;;;7.93;nan;100930.34;5051921;28;20044;-49
2022/04/25 04:36:37;;;;;;;13.55;9.68;;;;;;;7.94;nan;100942.53;5051903;28;20036;-52
2022/04/25 04:39:02;;;;;;;24.45;10.75;;;;;;;7.91;nan;100932.09;5052109;28;20055;-52
2022/04/25 04:41:27;;;;;;;15.23;10.43;;;;;;;7.94;nan;100933.78;5050584;28;20044;-51
2022/04/25 04:43:55;;;;;;;19.13;10.48;;;;;;;7.91;nan;100929.50;5051875;28;20052;-46
2022/04/25 04:46:20;;;;;;;16.20;10.70;;;;;;;7.60;nan;100875.97;5051758;28;20061;-52
2022/04/25 04:48:46;;;;;;;17.67;11.63;;;;;;;8.01;nan;100948.53;5051497;28;20083;-48
2022/04/25 04:51:11;;;;;;;16.75;10.48;;;;;;;8.01;nan;100938.03;5051786;28;20071;-49
2022/04/25 04:53:37;;;;;;;17.48;11.50;;;;;;;8.08;nan;100946.66;5050495;28;20237;-48
2022/04/25 04:56:03;;;;;;;17.05;11.23;;;;;;;7.81;nan;100886.03;5051798;28;20047;-52
2022/04/25 04:58:28;;;;;;;21.80;12.50;;;;;;;8.18;nan;100953.41;5050331;28;20461;-52
2022/04/25 05:00:53;;;;;;;14.32;11.57;;;;;;;7.83;nan;100880.75;5050294;28;20120;-50
2022/04/25 05:03:19;;;;;;;13.65;11.05;;;;;;;7.92;nan;100896.28;5049992;28;20071;-51
2022/04/25 05:05:45;;;;;;;18.17;12.85;;;;;;;8.26;nan;100957.59;5052149;28;20033;-57
2022/04/25 05:08:11;;;;;;;17.88;11.93;;;;;;;8.01;nan;100917.06;5051743;28;20033;-53
2022/04/25 05:10:36;;;;;;;18.50;12.15;;;;;;;8.30;nan;100963.69;5051641;28;20124;-51
2022/04/25 05:13:03;;;;;;;17.27;12.57;;;;;;;8.29;nan;100978.56;5050561;28;20064;-51
2022/04/25 05:15:29;;;;;;;19.85;13.10;;;;;;;8.26;nan;100980.38;5055251;28;20048;-51
2022/04/25 05:17:55;;;;;;;18.70;12.55;;;;;;;8.16;nan;100986.69;5055334;28;20048;-51
2022/04/25 05:20:22;;;;;;;16.52;11.85;;;;;;;7.74;nan;100918.47;5054295;28;20479;-49
2022/04/25 05:22:49;;;;;;;16.02;12.52;;;;;;;7.71;nan;100921.16;5055512;28;20053;-55
2022/04/25 05:25:20;;;;;;;17.30;13.15;;;;;;;8.01;nan;100987.84;5055571;28;20060;-53
2022/04/25 05:27:47;;;;;;;20.63;12.50;;;;;;;7.82;nan;100961.09;5055431;28;20033;-50
2022/04/25 05:30:13;;;;;;;18.85;13.07;;;;;;;7.48;nan;100922.47;5054133;28;20029;-54
2022/04/25 05:32:50;;;;;;;18.08;12.32;;;;;;;7.74;nan;100973.50;5055180;28;20116;-57
2022/04/25 05:35:21;;;;;;;19.55;13.48;;;;;;;7.63;nan;100979.84;5055416;28;20040;-52
2022/04/25 05:37:46;;;;;;;20.67;14.63;;;;;;;7.43;nan;100948.75;5054122;28;20415;-54
2022/04/25 05:40:13;;;;;;;24.65;14.00;;;;;;;7.57;nan;100983.44;5053937;28;20041;-54
2022/04/25 05:42:40;;;;;;;19.40;13.65;;;;;;;7.68;nan;100993.69;5037290;28;20400;-52
2022/04/25 05:45:07;;;;;;;19.90;14.82;;;;;;;7.40;nan;100934.84;5055224;28;20033;-51
2022/04/25 05:47:33;;;;;;;22.67;13.65;;;;;;;7.81;nan;100996.09;5055201;28;20463;-50
2022/04/25 05:52:44;;;;;;;19.83;14.15;;;;;;;7.90;nan;101000.28;5054308;28;20095;-54
2022/04/25 05:55:10;;;;;;;22.33;14.75;;;;;;;7.95;nan;100985.34;5054941;28;20037;-50
2022/04/25 05:57:36;;;;;;;18.35;14.05;;;;;;;8.07;nan;101003.44;5053757;28;20120;-53
2022/04/25 06:00:01;;;;;;;19.27;13.48;;;;;;;8.08;nan;101007.81;5055044;28;20124;-53
2022/04/25 06:02:27;;;;;;;20.85;13.57;;;;;;;8.08;nan;101020.06;5054865;28;20087;-49
2022/04/25 06:04:52;;;;;;;19.10;14.30;;;;;;;8.12;nan;101017.31;5054609;28;20025;-50
2022/04/25 06:07:17;;;;;;;19.27;13.18;;;;;;;8.15;nan;101016.41;5054727;28;20025;-47
2022/04/25 06:09:42;;;;;;;20.35;13.98;;;;;;;7.84;nan;100963.72;5054831;28;20061;-50
2022/04/25 06:12:08;;;;;;;27.67;14.70;;;;;;;8.13;nan;101020.81;5054619;28;20069;-52
2022/04/25 06:14:34;;;;;;;23.83;14.52;;;;;;;8.17;nan;101020.72;5053611;28;20037;-54
2022/04/25 06:17:00;;;;;;;20.15;14.40;;;;;;;8.20;nan;101032.94;5054840;28;20345;-51
2022/04/25 06:19:25;;;;;;;19.00;14.63;;;;;;;8.14;nan;101009.44;5054522;28;20044;-49
2022/04/25 06:21:51;;;;;;;23.83;15.48;;;;;;;7.89;nan;100961.88;5054119;28;20427;-57
2022/04/25 06:24:17;;;;;;;22.52;14.75;;;;;;;7.92;nan;100964.44;5052491;28;20025;-54
2022/04/25 06:26:42;;;;;;;23.52;15.40;;;;;;;7.91;nan;100965.31;5054302;28;20033;-50
2022/04/25 06:29:07;;;;;;;20.33;15.25;;;;;;;8.22;nan;101005.78;5054269;28;20158;-53
2022/04/25 06:31:33;;;;;;;19.30;15.60;;;;;;;8.35;nan;101027.38;5054710;28;20384;-53
2022/04/25 06:33:59;;;;;;;20.58;14.98;;;;;;;8.38;nan;101019.47;5052924;28;20424;-47
2022/04/25 06:36:24;;;;;;;18.77;15.50;;;;;;;8.45;nan;101039.44;5054113;28;20037;-48
2022/04/25 06:38:50;;;;;;;18.40;13.70;;;;;;;8.53;nan;101034.00;5053262;28;20032;-47
2022/04/25 06:41:15;;;;;;;16.52;13.65;;;;;;;8.58;nan;101037.44;5053834;28;20033;-47
2022/04/25 06:43:40;;;;;;;17.80;13.95;;;;;;;8.63;nan;101031.19;5054224;28;20047;-50
2022/04/25 06:46:06;;;;;;;19.95;14.88;;;;;;;8.19;nan;100961.25;5054147;28;20399;-47
2022/04/25 06:48:31;;;;;;;17.17;14.82;;;;;;;8.57;nan;101046.19;5053963;28;20044;-48
2022/04/25 06:50:57;;;;;;;18.95;14.73;;;;;;;8.58;nan;101046.13;5052687;28;20483;-51
2022/04/25 06:53:23;;;;;;;18.23;15.23;;;;;;;8.32;nan;100980.25;5053876;28;20033;-52
2022/04/25 06:55:49;;;;;;;21.25;16.65;;;;;;;8.38;nan;100986.22;5053753;28;20044;-49
2022/04/25 06:58:14;;;;;;;22.15;16.58;;;;;;;8.39;nan;100984.47;5053906;28;20032;-50
2022/04/25 07:00:40;;;;;;;21.25;17.15;;;;;;;8.65;nan;101045.13;5052595;28;20029;-53
2022/04/25 07:03:05;;;;;;;24.40;16.55;;;;;;;8.53;nan;101031.38;5052034;28;20040;-47
2022/04/25 07:05:31;;;;;;;25.00;18.27;;;;;;;8.59;nan;101053.13;5053563;28;20399;-46
2022/04/25 07:07:56;;;;;;;24.33;18.13;;;;;;;8.54;nan;101052.38;5053439;28;20115;-52
2022/04/25 07:10:22;;;;;;;24.15;18.23;;;;;;;8.52;nan;101054.16;5051933;28;20396;-50
2022/04/25 07:12:47;;;;;;;27.20;18.73;;;;;;;7.99;nan;100955.56;5051896;28;20444;-46
2022/04/25 07:15:13;;;;;;;25.38;18.35;;;;;;;8.52;nan;101054.16;5053301;28;20151;-46
2022/04/25 07:17:38;;;;;;;16.88;14.10;;;;;;;8.39;nan;101053.53;5052975;28;20493;-46
2022/04/25 07:20:04;;;;;;;17.10;12.57;;;;;;;7.98;nan;100993.16;5052885;28;20510;-46
2022/04/25 07:30:41;;;;;;;22.08;17.67;;;;;;;8.30;nan;101068.59;5053419;28;20044;-53
2022/04/25 07:33:07;;;;;;;25.42;18.05;;;;;;;7.89;nan;101004.66;5051655;28;20440;-50
2022/04/25 07:35:34;;;;;;;26.83;20.52;;;;;;;8.32;nan;101072.91;5052915;28;20075;-52
2022/04/25 07:37:59;;;;;;;22.27;19.15;;;;;;;8.18;nan;101053.91;5052409;28;20087;-47
2022/04/25 07:40:25;;;;;;;26.10;21.00;;;;;;;7.94;nan;101018.53;5052926;28;20489;-49
2022/04/25 07:42:50;;;;;;;27.25;21.17;;;;;;;8.37;nan;101081.56;5052520;28;20373;-50
2022/04/25 07:45:16;;;;;;;26.85;21.45;;;;;;;8.38;nan;101078.03;5052495;28;20029;-49
2022/04/25 07:47:43;;;;;;;27.83;21.85;;;;;;;8.05;nan;101015.75;5051160;28;20171;-48
2022/04/25 07:50:09;;;;;;;29.98;20.92;;;;;;;8.31;nan;101076.44;5051172;28;20049;-48
2022/04/25 07:52:35;;;;;;;30.10;21.30;;;;;;;8.37;nan;101078.94;5051176;28;20078;-46
2022/04/25 07:55:00;;;;;;;27.27;21.25;;;;;;;8.09;nan;101019.13;5052765;28;20033;-46
2022/04/25 07:57:25;;;;;;;27.42;21.90;;;;;;;8.38;nan;101074.53;5051090;28;20037;-50
2022/04/25 07:59:51;;;;;;;30.83;22.05;;;;;;;8.10;nan;101028.75;5052988;28;20138;-51
2022/04/25 08:02:20;;;;;;;29.65;22.00;;;;;;;8.22;nan;101050.34;5052082;28;20033;-47
2022/04/25 08:04:45;;;;;;;34.83;22.45;;;;;;;8.15;nan;101030.38;5052182;28;20047;-51
2022/04/25 08:07:11;;;;;;;33.97;23.33;;;;;;;8.34;nan;101075.50;5052353;28;20028;-51
2022/04/25 08:09:37;;;;;;;28.23;21.45;;;;;;;8.06;nan;101022.69;5052155;28;20109;-51
2022/04/25 08:20:14;;;;;;;27.02;21.42;;;;;;;8.65;nan;101099.38;5051841;28;20075;-48
2022/04/25 08:22:39;;;;;;;29.73;21.40;;;;;;;8.67;nan;101106.31;5051781;28;20065;-48
2022/04/25 08:25:07;;;;;;;28.63;22.10;;;;;;;8.69;nan;101095.78;5051903;28;20114;-47
2022/04/25 08:27:33;;;;;;;32.45;22.10;;;;;;;8.70;nan;101095.75;5034122;28;20126;-47
2022/04/25 08:29:59;;;;;;;24.50;19.30;;;;;;;8.70;nan;101103.63;5050544;28;20036;-48
2022/04/25 08:32:25;;;;;;;25.83;20.20;;;;;;;8.74;nan;101109.69;5051940;28;20037;-55
2022/04/25 08:34:50;;;;;;;24.25;19.80;;;;;;;8.66;nan;101087.97;5051875;28;20025;-50
2022/04/25 08:37:16;;;;;;;25.63;20.17;;;;;;;8.78;nan;101116.59;5033967;28;20094;-51
2022/04/25 08:39:41;;;;;;;28.17;20.15;;;;;;;8.74;nan;101117.56;5051676;28;20444;-50
2022/04/25 08:42:21;;;;;;;25.95;21.33;;;;;;;8.81;nan;101112.16;5050935;28;20032;-53
2022/04/25 08:44:53;;;;;;;27.25;21.52;;;;;;;9.07;nan;101116.84;5042306;28;20410;-54
2022/04/25 08:47:20;;;;;;;25.30;19.50;;;;;;;9.03;nan;101107.31;5050696;28;20025;-51
2022/04/25 08:49:45;;;;;;;27.52;20.85;;;;;;;9.23;nan;101115.59;5048645;28;20047;-46
2022/04/25 08:52:12;;;;;;;24.98;19.58;;;;;;;9.37;nan;101115.31;5050850;28;20037;-48
2022/04/25 08:54:38;;;;;;;23.17;18.25;;;;;;;9.10;nan;101053.75;5051007;28;20111;-49
2022/04/25 08:57:03;;;;;;;24.85;18.00;;;;;;;9.18;nan;101056.19;5051639;28;20124;-48
2022/04/25 08:59:31;;;;;;;22.05;17.00;;;;;;;9.28;nan;101082.19;5051528;28;20029;-47
2022/04/25 09:01:57;;;;;;;21.25;17.10;;;;;;;9.46;nan;101123.81;5049967;28;20108;-49
2022/04/25 09:04:23;;;;;;;18.77;16.35;;;;;;;9.03;nan;101066.16;5051438;28;20345;-50
2022/04/25 09:06:51;;;;;;;21.88;16.67;;;;;;;9.38;nan;101109.13;5050127;28;20033;-48
2022/04/25 09:09:16;;;;;;;21.98;16.80;;;;;;;9.50;nan;101122.88;5050018;28;20361;-48
2022/04/25 09:14:26;;;;;;;20.15;16.80;;;;;;;9.52;nan;101059.75;5050880;28;20102;-51
2022/04/25 09:16:52;;;;;;;21.23;16.67;;;;;;;9.94;nan;101144.56;5052032;28;20400;-51
2022/04/25 09:19:17;;;;;;;20.30;16.33;;;;;;;10.06;nan;101144.28;5051100;28;20052;-52
2022/04/25 09:21:44;;;;;;;19.48;16.40;;;;;;;10.12;nan;101152.00;5051254;28;20037;-49
2022/04/25 09:24:20;;;;;;;20.20;15.13;;;;;;;9.76;nan;101097.69;5051264;28;20079;-48
2022/04/25 09:26:45;;;;;;;19.08;15.57;;;;;;;10.20;nan;101165.84;5051259;28;20063;-52
2022/04/25 09:29:11;;;;;;;20.80;15.02;;;;;;;9.96;nan;101143.63;5051300;28;20456;-49
2022/04/25 09:31:47;;;;;;;22.55;16.92;;;;;;;9.98;nan;101154.97;5051206;28;20120;-48
2022/04/25 09:34:15;;;;;;;20.30;16.85;;;;;;;9.54;nan;101064.06;5032883;28;20473;-48
2022/04/25 09:36:48;;;;;;;18.33;15.63;;;;;;;9.65;nan;101092.72;5048329;28;20029;-49
2022/04/25 09:39:27;;;;;;;18.33;14.90;;;;;;;9.92;nan;101165.66;5050469;28;20037;-53
2022/04/25 09:41:52;;;;;;;22.77;16.13;;;;;;;9.84;nan;101175.47;5050613;28;20025;-50
2022/04/25 09:44:18;;;;;;;18.13;15.90;;;;;;;9.74;nan;101168.72;5048701;28;20818;-48
2022/04/25 09:46:47;;;;;;;19.08;15.70;;;;;;;9.74;nan;101163.47;5050933;28;20041;-49
2022/04/25 09:49:18;;;;;;;15.75;13.82;;;;;;;9.36;nan;101109.19;5050599;28;20036;-49
2022/04/25 09:52:01;;;;;;;17.48;14.25;;;;;;;9.54;nan;101161.28;5049671;28;20399;-52
2022/04/25 09:54:26;;;;;;;18.13;13.57;;;;;;;9.50;nan;101191.19;5050683;28;20488;-47
2022/04/25 09:56:52;;;;;;;22.48;14.10;;;;;;;9.39;nan;101172.16;5050661;28;20068;-51
2022/04/25 09:59:18;;;;;;;17.13;14.68;;;;;;;9.25;nan;101155.81;5050564;28;20035;-50
2022/04/25 10:01:45;;;;;;;19.08;16.13;;;;;;;9.22;nan;101171.69;5053025;28;20049;-52
2022/04/25 10:04:38;;;;;;;20.95;15.45;;;;;;;9.34;nan;101188.94;5054428;28;20358;-49
2022/04/25 10:07:05;;;;;;;22.35;16.15;;;;;;;9.32;nan;101175.81;5054520;28;20041;-48
2022/04/25 10:09:33;;;;;;;18.00;15.80;;;;;;;9.11;nan;101128.16;5052989;28;20119;-48
2022/04/25 10:12:00;;;;;;;19.27;15.50;;;;;;;9.13;nan;101115.84;5050752;28;20120;-49
2022/04/25 10:14:26;;;;;;;18.10;15.85;;;;;;;9.50;nan;101185.06;5053971;28;20270;-50
2022/04/25 10:16:54;;;;;;;16.83;14.07;;;;;;;9.55;nan;101186.69;5053674;28;20061;-49
2022/04/25 10:19:21;;;;;;;18.17;14.60;;;;;;;9.56;nan;101161.28;5053840;28;20494;-49
2022/04/25 10:21:46;;;;;;;20.45;15.55;;;;;;;8.82;nan;101011.50;5053936;28;20045;-51
2022/04/25 10:24:12;;;;;;;18.92;15.27;;;;;;;9.69;nan;101106.66;5048814;28;20195;-49
2022/04/25 10:26:37;;;;;;;16.58;14.52;;;;;;;9.66;nan;101128.59;5053992;28;20377;-48
2022/04/25 10:29:11;;;;;;;19.08;13.77;;;;;;;9.80;nan;101146.69;5088311;28;20312;-52
2022/04/25 10:31:41;;;;;;;16.60;14.68;;;;;;;9.95;nan;101151.56;5089166;28;20039;-52
2022/04/25 10:34:07;;;;;;;20.90;14.68;;;;;;;10.08;nan;101208.22;5055698;28;20132;-49
2022/04/25 10:36:38;;;;;;;16.70;14.20;;;;;;;10.01;nan;101211.91;5048785;28;20132;-51
2022/04/25 10:39:20;;;;;;;17.30;14.77;;;;;;;9.96;nan;101214.63;5053538;28;20573;-52
2022/04/25 10:44:44;;;;;;;16.13;14.40;;;;;;;9.85;nan;101221.06;5053765;28;20158;-48
2022/04/25 10:47:17;;;;;;;17.30;15.38;;;;;;;9.50;nan;101161.41;5053353;28;20033;-51
2022/04/25 10:49:53;;;;;;;20.90;14.40;;;;;;;9.77;nan;101202.84;5053382;28;20458;-51
2022/04/25 10:52:33;;;;;;;19.23;15.07;;;;;;;9.85;nan;101218.41;5053569;28;20421;-49
2022/04/25 10:55:21;;;;;;;19.70;14.17;;;;;;;9.76;nan;101218.63;5053803;28;20493;-51
2022/04/25 10:58:07;;;;;;;18.05;14.95;;;;;;;9.81;nan;101243.03;5052263;28;20362;-48
2022/04/25 11:00:36;;;;;;;19.83;14.20;;;;;;;9.82;nan;101236.91;5053740;28;20053;-52
2022/04/25 11:03:14;;;;;;;17.67;15.07;;;;;;;9.78;nan;101243.16;5053467;28;20029;-50
2022/04/25 11:05:47;;;;;;;20.40;14.27;;;;;;;9.59;nan;101227.78;5052230;28;20530;-47
2022/04/25 11:08:18;;;;;;;17.17;14.05;;;;;;;9.74;nan;101252.84;5052443;28;20163;-46
2022/04/25 11:10:49;;;;;;;18.67;14.73;;;;;;;9.75;nan;101256.34;5052787;28;20332;-49
2022/04/25 11:13:18;;;;;;;16.27;13.25;;;;;;;9.37;nan;101194.97;5045248;28;20029;-51
2022/04/25 11:15:47;;;;;;;16.42;13.77;;;;;;;9.61;nan;101257.50;5053462;28;20487;-50
2022/04/25 11:18:40;;;;;;;18.40;15.20;;;;;;;9.67;nan;101251.25;5056057;28;20048;-48
2022/04/25 11:21:15;;;;;;;16.50;14.65;;;;;;;9.21;nan;101187.47;5054846;28;20037;-52
2022/04/25 11:23:43;;;;;;;17.70;13.68;;;;;;;9.55;nan;101251.50;5053018;28;20420;-48
2022/04/25 11:26:10;;;;;;;15.05;13.55;;;;;;;9.29;nan;101217.91;5053282;28;20037;-51
2022/04/25 11:29:07;;;;;;;16.38;14.60;;;;;;;9.37;nan;101252.75;5052810;28;20254;-50
2022/04/25 11:31:39;;;;;;;19.75;16.33;;;;;;;9.37;nan;101251.94;5053192;28;20028;-51
2022/04/25 11:34:13;;;;;;;18.92;16.20;;;;;;;9.39;nan;101253.63;5051953;28;20090;-48
2022/04/25 11:36:46;;;;;;;21.25;16.13;;;;;;;9.47;nan;101263.94;5067460;28;20333;-51
2022/04/25 11:41:59;;;;;;;19.65;16.48;;;;;;;9.56;nan;101250.63;5052746;28;20140;-49
2022/04/25 11:44:25;;;;;;;37.10;16.35;;;;;;;9.44;nan;101237.75;5050758;28;20115;-52
2022/04/25 11:46:53;;;;;;;19.88;16.42;;;;;;;9.44;nan;101248.25;5051605;28;20045;-52
2022/04/25 11:49:28;;;;;;;20.35;16.67;;;;;;;9.08;nan;101186.00;5052645;28;20575;-50
2022/04/25 11:51:55;;;;;;;21.27;17.30;;;;;;;9.37;nan;101226.50;5051185;28;20036;-51
2022/04/25 11:54:21;;;;;;;23.73;17.30;;;;;;;9.78;nan;101254.50;5052572;28;20436;-48
2022/04/25 11:56:46;;;;;;;20.52;16.95;;;;;;;10.04;nan;101260.03;5052070;28;20048;-51
2022/04/25 11:59:13;;;;;;;20.25;16.77;;;;;;;10.56;nan;101261.44;5050679;28;20444;-52
2022/04/25 12:01:47;;;;;;;19.92;16.73;;;;;;;10.61;nan;101191.97;5052353;28;20060;-49
2022/04/25 12:04:28;;;;;;;19.50;16.15;;;;;;;11.02;nan;101283.00;5052004;28;20075;-50
2022/04/25 12:06:53;;;;;;;17.73;15.85;;;;;;;10.99;nan;101279.59;5052141;28;20410;-49
2022/04/25 12:17:45;;;;;;;19.13;16.25;;;;;;;10.15;nan;101288.75;5051108;28;20603;-50
2022/04/25 12:20:12;;;;;;;19.25;15.73;;;;;;;10.03;nan;101291.63;5051033;28;20072;-48